sensor_id;sensor_type;location;lat;lon;timestamp;pressure;altitude;pressure_sealevel;temperature;humidity
29163;BME280;20331;53.144;8.208;2023-05-10T00:08:40;100792.13;;;16.38;91.80
29163;BME280;20331;53.144;8.208;2023-05-10T00:19:01;100787.81;;;16.37;92.00
29163;BME280;20331;53.144;8.208;2023-05-10T00:29:22;100783.22;;;16.42;97.13
29163;BME280;20331;53.144;8.208;2023-05-10T00:39:44;100775.69;;;16.36;91.14
29163;BME280;20331;53.144;8.208;2023-05-10T00:50:05;100770.78;;;16.30;92.29
29163;BME280;20331;53.144;8.208;2023-05-10T01:00:27;100750.84;;;16.29;92.40
29163;BME280;20331;53.144;8.208;2023-05-10T01:10:49;100743.44;;;16.22;93.96
29163;BME280;20331;53.144;8.208;2023-05-10T01:21:14;100737.53;;;16.18;98.20
29163;BME280;20331;53.144;8.208;2023-05-10T01:42:21;100739.69;;;16.10;94.89
29163;BME280;20331;53.144;8.208;2023-05-10T01:52:44;100737.34;;;16.05;94.10
29163;BME280;20331;53.144;8.208;2023-05-10T02:03:09;100740.97;;;16.03;92.99
29163;BME280;20331;53.144;8.208;2023-05-10T02:13:31;100733.53;;;15.95;94.54
29163;BME280;20331;53.144;8.208;2023-05-10T02:23:54;100740.56;;;15.95;94.34
29163;BME280;20331;53.144;8.208;2023-05-10T02:34:16;100751.00;;;15.95;94.67
29163;BME280;20331;53.144;8.208;2023-05-10T02:44:38;100748.78;;;15.87;93.39
29163;BME280;20331;53.144;8.208;2023-05-10T02:55:00;100750.22;;;15.93;93.56
29163;BME280;20331;53.144;8.208;2023-05-10T03:05:24;100736.91;;;15.97;93.39
29163;BME280;20331;53.144;8.208;2023-05-10T03:15:55;100738.63;;;15.98;99.23
29163;BME280;20331;53.144;8.208;2023-05-10T03:26:26;100741.63;;;15.91;94.69
29163;BME280;20331;53.144;8.208;2023-05-10T03:36:48;100742.63;;;15.88;94.91
29163;BME280;20331;53.144;8.208;2023-05-10T03:47:09;100755.16;;;15.82;93.74
29163;BME280;20331;53.144;8.208;2023-05-10T03:57:31;100757.22;;;15.60;91.14
29163;BME280;20331;53.144;8.208;2023-05-10T04:07:52;100757.06;;;15.46;96.87
29163;BME280;20331;53.144;8.208;2023-05-10T04:18:14;100748.91;;;15.35;91.81
29163;BME280;20331;53.144;8.208;2023-05-10T04:28:35;100765.56;;;15.32;97.86
29163;BME280;20331;53.144;8.208;2023-05-10T04:38:56;100765.25;;;15.21;93.31
29163;BME280;20331;53.144;8.208;2023-05-10T04:49:18;100776.06;;;15.13;91.77
29163;BME280;20331;53.144;8.208;2023-05-10T04:59:39;100790.44;;;14.86;90.04
29163;BME280;20331;53.144;8.208;2023-05-10T05:10:00;100807.41;;;14.59;92.80
29163;BME280;20331;53.144;8.208;2023-05-10T05:20:22;100822.31;;;14.56;93.61
29163;BME280;20331;53.144;8.208;2023-05-10T05:30:43;100827.44;;;14.57;96.02
29163;BME280;20331;53.144;8.208;2023-05-10T05:41:05;100826.78;;;14.52;92.08
29163;BME280;20331;53.144;8.208;2023-05-10T05:51:26;100839.63;;;14.57;94.21
29163;BME280;20331;53.144;8.208;2023-05-10T06:01:48;100846.47;;;14.59;92.55
29163;BME280;20331;53.144;8.208;2023-05-10T06:12:10;100850.47;;;14.66;92.62
29163;BME280;20331;53.144;8.208;2023-05-10T06:22:32;100857.34;;;14.67;92.41
29163;BME280;20331;53.144;8.208;2023-05-10T06:32:54;100873.06;;;14.66;92.10
29163;BME280;20331;53.144;8.208;2023-05-10T06:43:16;100892.84;;;14.70;92.30
29163;BME280;20331;53.144;8.208;2023-05-10T06:53:37;100894.16;;;14.78;89.32
29163;BME280;20331;53.144;8.208;2023-05-10T07:03:58;100891.72;;;14.75;90.41
29163;BME280;20331;53.144;8.208;2023-05-10T07:14:20;100896.84;;;14.77;90.57
29163;BME280;20331;53.144;8.208;2023-05-10T07:24:41;100906.41;;;14.76;91.55
29163;BME280;20331;53.144;8.208;2023-05-10T07:35:03;100910.50;;;14.82;90.58
29163;BME280;20331;53.144;8.208;2023-05-10T07:45:25;100919.31;;;14.79;90.87
29163;BME280;20331;53.144;8.208;2023-05-10T07:55:50;100921.94;;;14.79;88.36
29163;BME280;20331;53.144;8.208;2023-05-10T08:06:11;100930.22;;;14.87;89.80
29163;BME280;20331;53.144;8.208;2023-05-10T08:16:33;100936.47;;;14.83;91.33
29163;BME280;20331;53.144;8.208;2023-05-10T08:26:55;100944.28;;;14.83;88.93
29163;BME280;20331;53.144;8.208;2023-05-10T08:37:16;100953.56;;;14.90;92.04
29163;BME280;20331;53.144;8.208;2023-05-10T08:47:38;100962.84;;;14.96;90.76
29163;BME280;20331;53.144;8.208;2023-05-10T08:58:00;100965.56;;;14.93;90.26
29163;BME280;20331;53.144;8.208;2023-05-10T09:08:22;100981.06;;;14.77;91.82
29163;BME280;20331;53.144;8.208;2023-05-10T09:18:46;100982.34;;;14.87;93.95
29163;BME280;20331;53.144;8.208;2023-05-10T09:29:08;100994.59;;;14.85;91.43
29163;BME280;20331;53.144;8.208;2023-05-10T09:39:33;100992.19;;;14.81;92.25
29163;BME280;20331;53.144;8.208;2023-05-10T09:49:54;101004.03;;;14.88;94.03
29163;BME280;20331;53.144;8.208;2023-05-10T10:00:19;101016.78;;;14.94;92.70
29163;BME280;20331;53.144;8.208;2023-05-10T10:10:40;101014.50;;;15.44;94.97
29163;BME280;20331;53.144;8.208;2023-05-10T10:21:02;101020.44;;;15.47;89.93
29163;BME280;20331;53.144;8.208;2023-05-10T10:31:40;101035.75;;;15.35;91.62
29163;BME280;20331;53.144;8.208;2023-05-10T10:42:03;101043.38;;;15.21;91.00
29163;BME280;20331;53.144;8.208;2023-05-10T10:52:26;101045.47;;;15.31;92.18
29163;BME280;20331;53.144;8.208;2023-05-10T11:13:26;101056.56;;;15.36;90.59
29163;BME280;20331;53.144;8.208;2023-05-10T11:23:55;101068.75;;;15.36;90.67
29163;BME280;20331;53.144;8.208;2023-05-10T11:34:23;101079.16;;;15.17;91.45
29163;BME280;20331;53.144;8.208;2023-05-10T11:44:45;101091.19;;;15.01;91.85
29163;BME280;20331;53.144;8.208;2023-05-10T11:55:06;101114.25;;;15.10;91.06
29163;BME280;20331;53.144;8.208;2023-05-10T12:05:28;101122.22;;;15.07;93.78
29163;BME280;20331;53.144;8.208;2023-05-10T12:15:52;101146.88;;;14.98;89.22
29163;BME280;20331;53.144;8.208;2023-05-10T12:26:14;101155.63;;;14.97;91.02
29163;BME280;20331;53.144;8.208;2023-05-10T12:36:38;101162.91;;;15.09;91.66
29163;BME280;20331;53.144;8.208;2023-05-10T12:46:59;101165.56;;;15.28;90.13
29163;BME280;20331;53.144;8.208;2023-05-10T12:57:20;101183.56;;;15.34;90.04
29163;BME280;20331;53.144;8.208;2023-05-10T13:07:42;101182.13;;;15.66;89.11
29163;BME280;20331;53.144;8.208;2023-05-10T13:18:05;101168.47;;;15.98;89.60
29163;BME280;20331;53.144;8.208;2023-05-10T13:28:26;101179.59;;;16.20;89.52
29163;BME280;20331;53.144;8.208;2023-05-10T13:38:48;101186.41;;;16.05;90.25
29163;BME280;20331;53.144;8.208;2023-05-10T13:49:09;101208.25;;;16.03;87.44
29163;BME280;20331;53.144;8.208;2023-05-10T13:59:30;101207.47;;;16.38;87.48
29163;BME280;20331;53.144;8.208;2023-05-10T14:09:55;101206.09;;;16.48;84.04
29163;BME280;20331;53.144;8.208;2023-05-10T14:20:16;101221.31;;;16.22;87.51
29163;BME280;20331;53.144;8.208;2023-05-10T14:30:37;101231.34;;;16.12;83.78
29163;BME280;20331;53.144;8.208;2023-05-10T14:40:59;101231.56;;;16.07;87.20
29163;BME280;20331;53.144;8.208;2023-05-10T14:51:20;101226.63;;;16.20;86.85
29163;BME280;20331;53.144;8.208;2023-05-10T15:01:42;101249.19;;;16.21;84.28
29163;BME280;20331;53.144;8.208;2023-05-10T15:12:05;101247.16;;;16.09;84.90
29163;BME280;20331;53.144;8.208;2023-05-10T15:22:26;101248.75;;;16.11;84.22
29163;BME280;20331;53.144;8.208;2023-05-10T15:32:49;101252.72;;;16.20;84.15
29163;BME280;20331;53.144;8.208;2023-05-10T15:43:10;101271.63;;;16.25;84.02
29163;BME280;20331;53.144;8.208;2023-05-10T15:53:32;101275.44;;;16.37;84.25
29163;BME280;20331;53.144;8.208;2023-05-10T16:03:53;101279.91;;;16.53;84.63
29163;BME280;20331;53.144;8.208;2023-05-10T16:14:14;101296.63;;;16.68;81.31
29163;BME280;20331;53.144;8.208;2023-05-10T16:24:36;101303.63;;;16.67;83.11
29163;BME280;20331;53.144;8.208;2023-05-10T16:34:57;101305.16;;;17.07;80.37
29163;BME280;20331;53.144;8.208;2023-05-10T16:45:19;101307.31;;;16.99;80.65
29163;BME280;20331;53.144;8.208;2023-05-10T16:55:41;101316.56;;;17.23;81.53
29163;BME280;20331;53.144;8.208;2023-05-10T17:06:03;101323.38;;;16.91;80.87
29163;BME280;20331;53.144;8.208;2023-05-10T17:16:25;101330.81;;;16.63;81.89
29163;BME280;20331;53.144;8.208;2023-05-10T17:26:47;101342.81;;;16.67;82.20
29163;BME280;20331;53.144;8.208;2023-05-10T17:37:08;101356.81;;;16.66;81.44
29163;BME280;20331;53.144;8.208;2023-05-10T17:47:29;101366.25;;;16.50;82.69
29163;BME280;20331;53.144;8.208;2023-05-10T17:57:51;101359.75;;;16.40;81.84
29163;BME280;20331;53.144;8.208;2023-05-10T18:08:12;101380.91;;;16.34;81.30
29163;BME280;20331;53.144;8.208;2023-05-10T18:18:34;101379.66;;;16.24;84.56
29163;BME280;20331;53.144;8.208;2023-05-10T18:28:55;101387.94;;;16.13;83.73
29163;BME280;20331;53.144;8.208;2023-05-10T18:39:20;101402.09;;;16.08;83.44
29163;BME280;20331;53.144;8.208;2023-05-10T18:49:42;101410.63;;;15.93;86.49
29163;BME280;20331;53.144;8.208;2023-05-10T19:00:06;101426.53;;;15.87;84.26
29163;BME280;20331;53.144;8.208;2023-05-10T19:10:28;101437.09;;;15.84;84.17
29163;BME280;20331;53.144;8.208;2023-05-10T19:20:52;101457.44;;;15.76;89.15
29163;BME280;20331;53.144;8.208;2023-05-10T19:31:15;101467.72;;;15.59;88.53
29163;BME280;20331;53.144;8.208;2023-05-10T19:41:37;101472.34;;;15.52;89.96
29163;BME280;20331;53.144;8.208;2023-05-10T19:51:58;101483.16;;;15.43;88.83
29163;BME280;20331;53.144;8.208;2023-05-10T20:02:20;101483.22;;;15.40;89.53
29163;BME280;20331;53.144;8.208;2023-05-10T20:12:44;101487.03;;;15.32;89.26
29163;BME280;20331;53.144;8.208;2023-05-10T20:23:09;101479.69;;;15.20;89.01
29163;BME280;20331;53.144;8.208;2023-05-10T20:33:31;101488.53;;;15.16;89.78
29163;BME280;20331;53.144;8.208;2023-05-10T20:43:52;101495.91;;;15.04;92.66
29163;BME280;20331;53.144;8.208;2023-05-10T20:54:13;101494.66;;;14.91;90.17
29163;BME280;20331;53.144;8.208;2023-05-10T21:04:35;101500.22;;;14.82;89.56
29163;BME280;20331;53.144;8.208;2023-05-10T21:14:56;101501.44;;;14.72;92.17
29163;BME280;20331;53.144;8.208;2023-05-10T21:25:18;101516.41;;;14.67;91.74
29163;BME280;20331;53.144;8.208;2023-05-10T21:35:39;101515.41;;;14.71;90.74
29163;BME280;20331;53.144;8.208;2023-05-10T21:46:03;101513.66;;;14.72;91.89
29163;BME280;20331;53.144;8.208;2023-05-10T21:56:24;101527.56;;;14.71;91.66
29163;BME280;20331;53.144;8.208;2023-05-10T22:06:46;101524.28;;;14.66;92.13
29163;BME280;20331;53.144;8.208;2023-05-10T22:17:08;101527.00;;;14.63;91.22
29163;BME280;20331;53.144;8.208;2023-05-10T22:27:29;101520.25;;;14.57;90.97
29163;BME280;20331;53.144;8.208;2023-05-10T22:37:50;101536.56;;;14.62;89.13
29163;BME280;20331;53.144;8.208;2023-05-10T22:48:12;101546.41;;;14.54;90.05
29163;BME280;20331;53.144;8.208;2023-05-10T22:58:34;101549.91;;;14.53;90.55
29163;BME280;20331;53.144;8.208;2023-05-10T23:08:56;101548.44;;;14.46;92.44
29163;BME280;20331;53.144;8.208;2023-05-10T23:19:17;101545.22;;;14.38;91.53
29163;BME280;20331;53.144;8.208;2023-05-10T23:29:39;101545.63;;;14.26;91.73
29163;BME280;20331;53.144;8.208;2023-05-10T23:40:00;101533.09;;;14.11;92.12
29163;BME280;20331;53.144;8.208;2023-05-10T23:50:22;101544.00;;;13.96;95.50
